createdAt,value
2023-10-23T00:00:09.962Z,69.03
2023-10-23T00:02:41.223Z,62.27
2023-10-23T00:05:11.968Z,61.93
2023-10-23T00:07:40.664Z,54.67
2023-10-23T00:10:09.560Z,54.40
2023-10-23T00:12:37.846Z,55.73
2023-10-23T00:15:06.766Z,61.80
2023-10-23T00:17:35.282Z,63.70
2023-10-23T00:20:06.186Z,73.30
2023-10-23T00:22:34.347Z,98.27
2023-10-23T00:25:02.889Z,90.90
2023-10-23T00:27:30.969Z,109.27
2023-10-23T00:30:02.889Z,98.53
2023-10-23T00:32:32.380Z,84.77
2023-10-23T00:35:01.356Z,94.97
2023-10-23T00:37:30.159Z,93.50
2023-10-23T00:39:58.094Z,106.70
2023-10-23T00:42:26.529Z,112.87
2023-10-23T00:44:54.922Z,111.50
2023-10-23T00:47:23.767Z,104.93
2023-10-23T00:49:52.314Z,113.33
2023-10-23T00:52:20.873Z,117.13
2023-10-23T00:54:49.730Z,105.77
2023-10-23T00:57:17.530Z,110.57
2023-10-23T00:59:46.038Z,113.03
2023-10-23T01:02:14.542Z,108.97
2023-10-23T01:04:43.097Z,101.63
2023-10-23T01:07:11.869Z,98.30
2023-10-23T01:09:40.471Z,95.50
2023-10-23T01:12:08.525Z,92.40
2023-10-23T01:14:36.983Z,86.73
2023-10-23T01:17:05.756Z,82.80
2023-10-23T01:19:33.997Z,80.13
2023-10-23T01:22:02.035Z,87.13
2023-10-23T01:24:32.263Z,72.80
2023-10-23T01:27:00.363Z,69.13
2023-10-23T01:29:28.676Z,68.93
2023-10-23T01:31:56.814Z,59.53
2023-10-23T01:34:24.558Z,65.43
2023-10-23T01:36:52.828Z,56.43
2023-10-23T01:39:21.172Z,51.30
2023-10-23T01:41:58.225Z,59.67
2023-10-23T01:44:31.820Z,59.47
2023-10-23T01:47:04.800Z,60.40
2023-10-23T01:49:32.909Z,65.40
2023-10-23T01:52:04.153Z,69.77
2023-10-23T01:54:35.036Z,76.70
2023-10-23T01:57:04.920Z,74.60
2023-10-23T01:59:33.448Z,86.23
2023-10-23T02:02:01.611Z,90.37
2023-10-23T02:04:30.392Z,93.00
2023-10-23T02:07:01.251Z,87.50
2023-10-23T02:09:29.916Z,99.43
2023-10-23T02:12:00.231Z,100.43
2023-10-23T02:14:28.654Z,110.87
2023-10-23T02:16:56.996Z,109.33
2023-10-23T02:19:26.178Z,111.93
2023-10-23T02:21:54.448Z,113.87
2023-10-23T02:24:23.194Z,109.80
2023-10-23T02:26:53.453Z,98.80
2023-10-23T02:29:22.395Z,99.33
2023-10-23T02:31:50.829Z,84.53
2023-10-23T02:34:19.115Z,72.10
2023-10-23T02:36:47.717Z,62.60
2023-10-23T02:39:16.038Z,44.77
2023-10-23T02:41:44.628Z,43.77
2023-10-23T02:44:12.899Z,66.50
2023-10-23T02:46:42.634Z,38.50
2023-10-23T02:49:33.473Z,37.23
2023-10-23T02:52:01.418Z,37.43
2023-10-23T02:54:30.956Z,36.70
2023-10-23T02:56:59.365Z,39.40
2023-10-23T02:59:27.608Z,34.43
2023-10-23T03:01:55.587Z,32.50
2023-10-23T03:04:23.632Z,32.67
2023-10-23T03:06:51.788Z,37.27
2023-10-23T03:09:19.795Z,33.03
2023-10-23T03:11:47.922Z,33.90
2023-10-23T03:14:16.353Z,34.43
2023-10-23T03:16:44.624Z,35.50
2023-10-23T03:19:12.892Z,39.03
2023-10-23T03:21:41.182Z,32.07
2023-10-23T03:24:09.984Z,38.50
2023-10-23T03:26:38.043Z,36.87
2023-10-23T03:29:06.413Z,32.50
2023-10-23T03:31:34.466Z,38.00
2023-10-23T03:34:03.164Z,33.90
2023-10-23T03:36:31.405Z,37.77
2023-10-23T03:38:59.849Z,39.57
2023-10-23T03:41:28.019Z,40.20
2023-10-23T03:43:56.210Z,41.00
2023-10-23T03:46:24.506Z,42.20
2023-10-23T03:48:53.735Z,40.50
2023-10-23T03:51:22.227Z,39.37
2023-10-23T03:53:50.308Z,39.37
2023-10-23T03:56:18.456Z,42.47
2023-10-23T03:58:46.704Z,39.27
2023-10-23T04:01:14.947Z,39.17
2023-10-23T04:03:42.947Z,57.37
2023-10-23T04:06:10.958Z,43.27
2023-10-23T04:08:39.099Z,45.47
2023-10-23T04:11:07.192Z,40.37
2023-10-23T04:13:36.447Z,41.10
2023-10-23T04:16:04.839Z,45.60
2023-10-23T04:18:33.119Z,49.13
2023-10-23T04:21:11.977Z,44.07
2023-10-23T04:23:41.244Z,45.70
2023-10-23T04:26:09.839Z,49.97
2023-10-23T04:28:38.665Z,46.60
2023-10-23T04:31:06.898Z,49.70
2023-10-23T04:33:34.822Z,53.13
2023-10-23T04:36:03.276Z,57.83
2023-10-23T04:38:33.120Z,50.20
2023-10-23T04:41:01.326Z,55.20
2023-10-23T04:43:29.686Z,46.07
2023-10-23T04:46:00.962Z,52.43
2023-10-23T04:48:29.394Z,56.60
2023-10-23T04:51:05.000Z,50.43
2023-10-23T04:53:33.257Z,53.33
2023-10-23T04:56:01.913Z,62.27
2023-10-23T04:58:31.364Z,59.67
2023-10-23T05:00:59.951Z,54.07
2023-10-23T05:03:28.227Z,51.80
2023-10-23T05:05:56.638Z,52.67
2023-10-23T05:08:24.793Z,49.90
2023-10-23T05:10:52.797Z,51.03
2023-10-23T05:13:21.077Z,48.00
2023-10-23T05:15:49.235Z,44.50
2023-10-23T05:18:17.416Z,46.50
2023-10-23T05:20:45.463Z,48.47
2023-10-23T05:23:13.251Z,44.37
2023-10-23T05:25:41.254Z,45.27
2023-10-23T05:28:09.173Z,46.53
2023-10-23T05:30:37.125Z,51.33
2023-10-23T05:33:05.044Z,47.93
2023-10-23T05:35:33.257Z,42.87
2023-10-23T05:38:01.132Z,51.03
2023-10-23T05:40:29.388Z,40.23
2023-10-23T05:42:57.687Z,46.33
2023-10-23T05:45:26.021Z,40.13
2023-10-23T05:47:54.222Z,38.60
2023-10-23T05:50:22.431Z,39.30
2023-10-23T05:52:50.501Z,37.57
2023-10-23T05:55:20.084Z,37.83
2023-10-23T05:57:48.453Z,38.97
2023-10-23T06:00:16.938Z,37.83
2023-10-23T06:02:45.065Z,35.13
2023-10-23T06:05:14.337Z,38.80
2023-10-23T06:07:42.876Z,37.53
2023-10-23T06:10:11.230Z,37.87
2023-10-23T06:12:39.319Z,40.37
2023-10-23T06:15:07.615Z,36.00
2023-10-23T06:17:35.732Z,45.00
2023-10-23T06:20:04.433Z,39.70
2023-10-23T06:22:32.719Z,38.30
2023-10-23T06:25:00.998Z,32.93
2023-10-23T06:27:28.808Z,36.00
2023-10-23T06:29:56.776Z,40.10
2023-10-23T06:32:27.448Z,36.30
2023-10-23T06:34:56.296Z,35.97
2023-10-23T06:37:24.584Z,36.20
2023-10-23T06:39:52.105Z,32.80
2023-10-23T06:42:20.027Z,37.30
2023-10-23T06:44:48.276Z,37.90
2023-10-23T06:47:17.287Z,38.80
2023-10-23T06:49:48.392Z,32.85
2023-10-23T06:52:16.476Z,35.58
2023-10-23T06:54:44.590Z,37.60
2023-10-23T06:57:12.714Z,38.67
2023-10-23T06:59:41.155Z,35.42
2023-10-23T07:02:10.623Z,43.00
2023-10-23T07:04:38.724Z,41.40
2023-10-23T07:07:17.874Z,54.83
2023-10-23T07:09:50.439Z,45.97
2023-10-23T07:12:18.326Z,48.97
2023-10-23T07:14:46.311Z,58.47
2023-10-23T07:17:14.279Z,56.23
2023-10-23T07:19:42.563Z,46.73
2023-10-23T07:22:10.341Z,38.40
2023-10-23T07:24:40.827Z,41.93
2023-10-23T07:27:13.340Z,39.60
2023-10-23T07:29:41.723Z,32.17
2023-10-23T07:32:10.125Z,40.43
2023-10-23T07:34:39.076Z,44.53
2023-10-23T07:37:07.365Z,47.43
2023-10-23T07:39:36.507Z,46.80
2023-10-23T07:42:04.857Z,46.83
2023-10-23T07:44:33.110Z,45.30
2023-10-23T07:47:01.308Z,54.80
2023-10-23T07:49:29.433Z,43.42
2023-10-23T07:51:57.561Z,43.43
2023-10-23T07:54:25.502Z,39.88
2023-10-23T07:56:57.199Z,43.40
2023-10-23T07:59:25.545Z,43.03
2023-10-23T08:01:54.346Z,46.22
2023-10-23T08:04:22.525Z,41.05
2023-10-23T08:06:50.869Z,37.38
2023-10-23T08:09:19.869Z,36.97
2023-10-23T08:11:47.590Z,31.00
2023-10-23T08:14:16.284Z,27.30
2023-10-23T08:16:44.589Z,32.08
2023-10-23T08:19:14.262Z,31.45
2023-10-23T08:21:42.436Z,28.02
2023-10-23T08:24:11.125Z,27.58
2023-10-23T08:26:40.736Z,28.20
2023-10-23T08:29:08.982Z,28.08
2023-10-23T08:31:40.477Z,26.88
2023-10-23T08:34:09.724Z,31.77
2023-10-23T08:36:38.518Z,25.42
2023-10-23T08:39:06.751Z,29.02
2023-10-23T08:41:37.139Z,26.02
2023-10-23T08:44:06.680Z,24.30
2023-10-23T08:46:35.562Z,23.95
2023-10-23T08:49:04.345Z,23.42
2023-10-23T08:51:33.169Z,20.48
2023-10-23T08:54:15.810Z,30.25
2023-10-23T08:56:45.446Z,28.63
2023-10-23T08:59:15.797Z,21.88
2023-10-23T09:01:44.352Z,26.42
2023-10-23T09:04:29.995Z,22.00
2023-10-23T09:07:00.887Z,28.42
2023-10-23T09:09:30.203Z,23.08
2023-10-23T09:11:59.236Z,24.40
2023-10-23T09:14:28.905Z,24.67
2023-10-23T09:16:58.143Z,24.85
2023-10-23T09:19:35.863Z,22.48
2023-10-23T09:22:05.598Z,24.73
2023-10-23T09:24:34.054Z,31.77
2023-10-23T09:27:01.985Z,21.33
2023-10-23T09:29:30.546Z,21.05
2023-10-23T09:32:00.481Z,25.42
2023-10-23T09:34:30.626Z,26.00
2023-10-23T09:36:59.175Z,20.67
2023-10-23T09:39:27.534Z,21.40
2023-10-23T09:41:55.157Z,21.40
2023-10-23T09:44:25.946Z,21.23
2023-10-23T09:46:55.673Z,23.08
2023-10-23T09:49:28.411Z,17.73
2023-10-23T09:51:59.408Z,17.55
2023-10-23T09:54:27.357Z,14.77
2023-10-23T09:56:55.791Z,12.07
2023-10-23T09:59:35.870Z,14.15
2023-10-23T10:02:07.720Z,14.32
2023-10-23T10:04:45.015Z,12.45
2023-10-23T10:07:18.582Z,8.18
2023-10-23T10:09:47.052Z,13.70
2023-10-23T10:12:15.371Z,12.52
2023-10-23T10:14:44.414Z,7.68
2023-10-23T10:17:16.233Z,6.22
2023-10-23T10:19:44.667Z,11.27
2023-10-23T10:22:13.219Z,13.30
2023-10-23T10:24:41.246Z,5.10
2023-10-23T10:27:10.127Z,10.68
2023-10-23T10:29:38.452Z,3.92
2023-10-23T10:32:13.513Z,3.45
2023-10-23T10:34:55.788Z,5.25
2023-10-23T10:37:31.880Z,8.73
2023-10-23T10:40:00.141Z,4.60
2023-10-23T10:42:30.948Z,5.25
2023-10-23T10:45:01.355Z,6.68
2023-10-23T10:47:53.997Z,7.47
2023-10-23T10:50:42.623Z,3.83
2023-10-23T10:53:15.418Z,4.72
2023-10-23T10:55:46.636Z,6.95
2023-10-23T10:58:14.769Z,6.43
2023-10-23T11:00:43.123Z,4.82
2023-10-23T11:03:11.561Z,3.47
2023-10-23T11:05:46.082Z,3.45
2023-10-23T11:08:14.594Z,4.63
2023-10-23T11:10:43.234Z,4.68
2023-10-23T11:13:18.017Z,5.88
2023-10-23T11:15:47.460Z,7.43
2023-10-23T11:18:18.278Z,2.78
2023-10-23T11:20:46.625Z,8.93
2023-10-23T11:23:18.236Z,6.13
2023-10-23T11:25:56.010Z,3.75
2023-10-23T11:28:25.075Z,5.38
2023-10-23T11:30:58.034Z,3.30
2023-10-23T11:33:26.137Z,1.85
2023-10-23T11:35:55.006Z,3.28
2023-10-23T11:38:25.621Z,4.35
2023-10-23T11:40:56.378Z,3.00
2023-10-23T11:43:24.655Z,5.63
2023-10-23T11:45:52.962Z,3.03
2023-10-23T11:48:20.907Z,4.03
2023-10-23T11:50:49.356Z,4.88
2023-10-23T11:53:18.410Z,2.65
2023-10-23T11:55:47.216Z,1.00
2023-10-23T11:58:15.517Z,7.60
2023-10-23T12:00:43.832Z,2.13
2023-10-23T12:03:11.933Z,3.20
2023-10-23T12:05:41.234Z,3.90
2023-10-23T12:08:17.128Z,1.90
2023-10-23T12:10:45.507Z,5.53
2023-10-23T12:13:13.238Z,4.55
2023-10-23T12:15:41.333Z,6.88
2023-10-23T12:18:09.212Z,8.45
2023-10-23T12:20:37.422Z,2.30
2023-10-23T12:23:05.708Z,4.03
2023-10-23T12:25:34.133Z,2.03
2023-10-23T12:28:02.463Z,4.93
2023-10-23T12:30:30.939Z,5.72
2023-10-23T12:33:17.523Z,5.72
2023-10-23T12:35:51.022Z,3.67
2023-10-23T12:38:19.549Z,6.13
2023-10-23T12:40:50.130Z,5.15
2023-10-23T12:43:18.396Z,6.20
2023-10-23T12:45:48.200Z,3.88
2023-10-23T12:48:16.554Z,9.20
2023-10-23T12:50:45.066Z,5.35
2023-10-23T12:53:13.609Z,5.15
2023-10-23T12:55:42.974Z,6.00
2023-10-23T12:58:11.396Z,8.63
2023-10-23T13:00:42.715Z,6.13
2023-10-23T13:03:11.003Z,6.50
2023-10-23T13:05:40.149Z,7.22
2023-10-23T13:08:08.972Z,6.43
2023-10-23T13:10:36.993Z,4.72
2023-10-23T13:13:05.218Z,4.53
2023-10-23T13:15:33.313Z,4.47
2023-10-23T13:18:04.009Z,5.05
2023-10-23T13:21:28.364Z,5.13
2023-10-23T13:23:23.452Z,4.57
2023-10-23T13:26:05.971Z,3.20
2023-10-23T13:28:41.046Z,2.78
2023-10-23T13:31:09.520Z,10.23
2023-10-23T13:33:38.485Z,8.98
2023-10-23T13:36:10.322Z,9.30
2023-10-23T13:38:39.237Z,9.73
2023-10-23T13:41:07.586Z,8.13
2023-10-23T13:43:35.689Z,10.90
2023-10-23T13:46:06.960Z,10.48
2023-10-23T13:48:35.298Z,9.25
2023-10-23T13:51:03.761Z,11.80
2023-10-23T13:53:33.067Z,11.82
2023-10-23T13:56:01.260Z,12.82
2023-10-23T13:58:48.221Z,18.02
2023-10-23T14:01:19.796Z,12.25
2023-10-23T14:03:48.532Z,20.90
2023-10-23T14:06:19.373Z,14.73
2023-10-23T14:09:42.057Z,17.88
2023-10-23T14:11:59.121Z,13.95
2023-10-23T14:14:25.358Z,20.73
2023-10-23T14:16:56.322Z,14.95
2023-10-23T14:19:38.103Z,15.05
2023-10-23T14:22:11.378Z,8.48
2023-10-23T14:24:40.050Z,7.88
2023-10-23T14:27:08.577Z,7.68
2023-10-23T14:29:37.182Z,14.75
2023-10-23T14:32:05.765Z,11.30
2023-10-23T14:34:33.894Z,9.18
2023-10-23T14:37:02.174Z,10.15
2023-10-23T14:39:31.170Z,13.70
2023-10-23T14:41:59.077Z,12.43
2023-10-23T14:44:26.874Z,12.25
2023-10-23T14:46:55.195Z,10.02
2023-10-23T14:49:23.282Z,13.18
2023-10-23T14:51:52.685Z,14.95
2023-10-23T14:54:21.222Z,18.60
2023-10-23T14:56:51.384Z,12.27
2023-10-23T14:59:19.523Z,8.68
2023-10-23T15:01:47.628Z,8.98
2023-10-23T15:04:32.636Z,12.57
2023-10-23T15:07:01.864Z,8.27
2023-10-23T15:09:30.572Z,12.05
2023-10-23T15:11:58.765Z,16.80
2023-10-23T15:14:26.729Z,8.30
2023-10-23T15:16:55.812Z,8.37
2023-10-23T15:19:23.891Z,14.30
2023-10-23T15:21:52.070Z,13.83
2023-10-23T15:24:21.380Z,11.80
2023-10-23T15:26:49.758Z,15.57
2023-10-23T15:29:17.857Z,10.20
2023-10-23T15:31:46.295Z,11.20
2023-10-23T15:34:15.265Z,11.07
2023-10-23T15:36:43.546Z,11.63
2023-10-23T15:39:11.668Z,14.80
2023-10-23T15:41:39.819Z,11.20
2023-10-23T15:44:07.679Z,10.33
2023-10-23T15:46:38.103Z,12.73
2023-10-23T15:49:06.732Z,12.87
2023-10-23T15:51:35.049Z,11.97
2023-10-23T15:54:03.106Z,12.70
2023-10-23T15:56:31.320Z,12.40
2023-10-23T15:58:59.940Z,11.63
2023-10-23T16:01:29.352Z,12.67
2023-10-23T16:03:57.338Z,12.20
2023-10-23T16:06:25.083Z,17.90
2023-10-23T16:08:53.144Z,15.03
2023-10-23T16:11:23.340Z,18.57
2023-10-23T16:13:51.595Z,21.20
2023-10-23T16:16:19.682Z,16.93
2023-10-23T16:18:47.578Z,18.27
2023-10-23T16:21:16.754Z,21.10
2023-10-23T16:23:45.494Z,24.97
2023-10-23T16:26:13.701Z,18.50
2023-10-23T16:28:42.515Z,18.27
2023-10-23T16:31:15.453Z,20.20
2023-10-23T16:33:44.018Z,18.80
2023-10-23T16:36:12.365Z,18.93
2023-10-23T16:38:40.918Z,14.10
2023-10-23T16:41:09.045Z,13.60
2023-10-23T16:43:41.633Z,14.17
2023-10-23T16:46:13.208Z,20.33
2023-10-23T16:48:43.021Z,17.47
2023-10-23T16:51:11.331Z,14.30
2023-10-23T16:53:42.796Z,16.50
2023-10-23T16:56:10.664Z,14.23
2023-10-23T16:58:38.995Z,18.40
2023-10-23T17:01:08.079Z,18.40
2023-10-23T17:03:39.242Z,14.67
2023-10-23T17:06:10.787Z,16.33
2023-10-23T17:08:39.218Z,15.60
2023-10-23T17:11:08.502Z,14.30
2023-10-23T17:13:37.189Z,17.97
2023-10-23T17:16:05.552Z,17.73
2023-10-23T17:18:33.907Z,13.77
2023-10-23T17:21:04.300Z,17.97
2023-10-23T17:23:33.015Z,16.37
2023-10-23T17:26:02.164Z,13.30
2023-10-23T17:28:32.098Z,15.07
2023-10-23T17:31:00.826Z,12.57
2023-10-23T17:33:32.165Z,15.67
2023-10-23T17:36:01.135Z,17.10
2023-10-23T17:38:29.749Z,32.27
2023-10-23T17:40:58.182Z,15.07
2023-10-23T17:43:26.573Z,13.50
2023-10-23T17:45:55.392Z,13.30
2023-10-23T17:48:23.297Z,11.97
2023-10-23T17:50:52.437Z,9.87
2023-10-23T17:53:20.676Z,11.40
2023-10-23T17:55:48.578Z,11.57
2023-10-23T17:58:16.859Z,10.50
2023-10-23T18:00:45.950Z,11.37
2023-10-23T18:03:15.461Z,12.63
2023-10-23T18:05:43.805Z,13.43
2023-10-23T18:08:12.444Z,9.63
2023-10-23T18:10:41.576Z,18.33
2023-10-23T18:13:10.061Z,10.40
2023-10-23T18:15:38.338Z,11.83
2023-10-23T18:18:06.397Z,11.63
2023-10-23T18:20:34.693Z,10.30
2023-10-23T18:23:02.891Z,22.70
2023-10-23T18:25:31.844Z,14.60
2023-10-23T18:28:00.635Z,17.47
2023-10-23T18:30:32.009Z,18.83
2023-10-23T18:33:00.191Z,18.13
2023-10-23T18:35:28.504Z,20.67
2023-10-23T18:37:57.560Z,22.83
2023-10-23T18:40:26.285Z,18.67
2023-10-23T18:42:58.635Z,19.93
2023-10-23T18:45:26.996Z,21.73
2023-10-23T18:47:55.288Z,20.60
2023-10-23T18:50:23.748Z,21.93
2023-10-23T18:52:52.172Z,21.47
2023-10-23T18:55:21.324Z,15.10
2023-10-23T18:57:49.645Z,14.20
2023-10-23T19:00:18.307Z,20.10
2023-10-23T19:02:46.528Z,15.23
2023-10-23T19:05:15.056Z,13.47
2023-10-23T19:07:43.511Z,17.00
2023-10-23T19:10:11.848Z,11.53
2023-10-23T19:12:43.098Z,17.63
2023-10-23T19:15:11.530Z,22.20
2023-10-23T19:17:41.379Z,19.33
2023-10-23T19:20:11.052Z,22.87
2023-10-23T19:22:39.994Z,25.17
2023-10-23T19:25:11.020Z,22.93
2023-10-23T19:27:39.103Z,23.83
2023-10-23T19:30:12.376Z,28.00
2023-10-23T19:32:45.858Z,29.03
2023-10-23T19:35:16.815Z,27.43
2023-10-23T19:37:45.268Z,31.10
2023-10-23T19:40:14.071Z,38.27
2023-10-23T19:42:42.965Z,35.00
2023-10-23T19:45:11.348Z,33.57
2023-10-23T19:47:40.059Z,35.17
2023-10-23T19:50:10.684Z,34.47
2023-10-23T19:52:39.700Z,29.93
2023-10-23T19:55:45.824Z,27.03
2023-10-23T19:57:58.144Z,30.77
2023-10-23T20:00:26.549Z,26.97
2023-10-23T20:02:56.110Z,30.73
2023-10-23T20:05:28.786Z,28.20
2023-10-23T20:07:59.753Z,27.63
2023-10-23T20:10:32.108Z,22.47
2023-10-23T20:13:00.740Z,24.93
2023-10-23T20:15:30.714Z,27.63
2023-10-23T20:17:59.299Z,27.93
2023-10-23T20:20:27.845Z,24.67
2023-10-23T20:22:55.555Z,25.93
2023-10-23T20:25:23.794Z,24.47
2023-10-23T20:27:51.830Z,29.37
2023-10-23T20:30:20.055Z,27.47
2023-10-23T20:32:48.913Z,19.50
2023-10-23T20:35:17.224Z,15.23
2023-10-23T20:37:46.098Z,15.80
2023-10-23T20:40:14.563Z,19.60
2023-10-23T20:42:44.421Z,17.93
2023-10-23T20:45:14.704Z,12.77
2023-10-23T20:47:43.048Z,16.23
2023-10-23T20:50:12.006Z,10.63
2023-10-23T20:52:40.188Z,12.93
2023-10-23T20:55:08.868Z,12.77
2023-10-23T20:57:37.127Z,9.30
2023-10-23T21:00:07.933Z,8.07
2023-10-23T21:02:37.659Z,11.80
2023-10-23T21:05:06.893Z,11.30
2023-10-23T21:07:36.017Z,12.97
2023-10-23T21:10:04.394Z,6.03
2023-10-23T21:12:33.028Z,5.43
2023-10-23T21:15:01.060Z,7.60
2023-10-23T21:17:29.333Z,8.17
2023-10-23T21:19:57.701Z,6.17
2023-10-23T21:22:25.637Z,4.80
2023-10-23T21:24:54.110Z,7.07
2023-10-23T21:27:22.754Z,7.33
2023-10-23T21:29:50.943Z,5.93
2023-10-23T21:32:19.631Z,7.17
2023-10-23T21:34:47.871Z,7.33
2023-10-23T21:37:16.244Z,7.90
2023-10-23T21:39:44.565Z,7.17
2023-10-23T21:42:12.617Z,6.77
2023-10-23T21:44:41.282Z,10.37
2023-10-23T21:47:09.785Z,7.30
2023-10-23T21:49:38.276Z,8.10
2023-10-23T21:52:06.912Z,9.73
2023-10-23T21:54:35.343Z,6.20
2023-10-23T21:57:20.232Z,9.60
2023-10-23T21:59:51.575Z,10.30
2023-10-23T22:02:19.874Z,8.67
2023-10-23T22:04:48.495Z,8.77
2023-10-23T22:07:16.711Z,8.33
2023-10-23T22:09:44.986Z,12.10
2023-10-23T22:12:13.733Z,9.60
2023-10-23T22:14:42.669Z,8.33
2023-10-23T22:17:11.470Z,10.13
2023-10-23T22:19:39.656Z,11.40
2023-10-23T22:22:07.683Z,10.50
2023-10-23T22:24:36.033Z,8.77
2023-10-23T22:27:04.321Z,13.67
2023-10-23T22:29:32.522Z,7.53
2023-10-23T22:32:00.397Z,10.10
2023-10-23T22:34:29.162Z,8.70
2023-10-23T22:37:55.375Z,7.57
2023-10-23T22:39:45.602Z,11.27
2023-10-23T22:42:13.676Z,8.33
2023-10-23T22:44:42.476Z,9.60
2023-10-23T22:47:10.765Z,13.37
2023-10-23T22:49:38.990Z,11.20
2023-10-23T22:52:07.355Z,12.30
2023-10-23T22:54:35.854Z,10.20
2023-10-23T22:57:06.204Z,12.07
2023-10-23T22:59:34.969Z,10.63
2023-10-23T23:02:03.421Z,11.53
2023-10-23T23:04:31.994Z,10.93
2023-10-23T23:07:01.021Z,9.33
2023-10-23T23:09:30.320Z,12.43
2023-10-23T23:11:58.800Z,9.93
2023-10-23T23:14:26.773Z,9.67
2023-10-23T23:16:59.979Z,8.20
2023-10-23T23:19:30.881Z,8.17
2023-10-23T23:22:09.953Z,5.93
2023-10-23T23:24:41.003Z,8.60
2023-10-23T23:27:08.889Z,8.77
2023-10-23T23:29:37.011Z,15.10
2023-10-23T23:32:08.406Z,10.00
2023-10-23T23:34:37.924Z,9.00
2023-10-23T23:37:06.318Z,9.17
2023-10-23T23:39:34.361Z,8.57
2023-10-23T23:42:03.106Z,11.87
2023-10-23T23:44:31.344Z,11.53
2023-10-23T23:46:59.489Z,9.60
2023-10-23T23:49:29.039Z,10.13
2023-10-23T23:51:57.362Z,9.10
2023-10-23T23:54:25.563Z,9.97
2023-10-23T23:56:53.768Z,8.03
2023-10-23T23:59:21.898Z,9.00
